createdAt,value
2023-02-14T00:00:13.198Z,12.10
2023-02-14T00:01:13.130Z,11.70
2023-02-14T00:02:13.032Z,11.00
2023-02-14T00:03:12.959Z,11.60
2023-02-14T00:04:12.894Z,11.60
2023-02-14T00:05:12.799Z,11.60
2023-02-14T00:06:12.700Z,12.00
2023-02-14T00:07:12.632Z,11.80
2023-02-14T00:08:12.536Z,11.80
2023-02-14T00:09:12.472Z,11.10
2023-02-14T00:10:12.391Z,11.60
2023-02-14T00:11:12.318Z,12.70
2023-02-14T00:12:12.244Z,12.50
2023-02-14T00:13:12.155Z,13.10
2023-02-14T00:14:12.069Z,12.40
2023-02-14T00:15:12.016Z,13.80
2023-02-14T00:16:11.968Z,14.00
2023-02-14T00:17:11.852Z,13.10
2023-02-14T00:18:11.785Z,14.60
2023-02-14T00:19:11.725Z,14.70
2023-02-14T00:20:11.633Z,15.90
2023-02-14T00:21:11.572Z,15.60
2023-02-14T00:22:11.502Z,18.10
2023-02-14T00:23:11.423Z,17.50
2023-02-14T00:24:11.341Z,17.50
2023-02-14T00:25:11.282Z,19.10
2023-02-14T00:26:11.184Z,19.50
2023-02-14T00:27:11.104Z,23.50
2023-02-14T00:28:11.025Z,25.30
2023-02-14T00:29:10.956Z,26.20
2023-02-14T00:30:10.889Z,24.70
2023-02-14T00:31:10.927Z,23.60
2023-02-14T00:32:10.748Z,23.20
2023-02-14T00:33:10.613Z,23.20
2023-02-14T00:34:10.528Z,24.30
2023-02-14T00:35:10.470Z,23.90
2023-02-14T00:36:10.370Z,24.30
2023-02-14T00:37:10.287Z,23.20
2023-02-14T00:38:10.185Z,22.90
2023-02-14T00:39:10.093Z,23.10
2023-02-14T00:40:10.014Z,24.30
2023-02-14T00:41:09.925Z,23.00
2023-02-14T00:42:09.837Z,25.60
2023-02-14T00:43:09.748Z,25.70
2023-02-14T00:44:09.658Z,25.10
2023-02-14T00:45:09.605Z,25.00
2023-02-14T00:46:09.639Z,25.30
2023-02-14T00:47:09.386Z,24.40
2023-02-14T00:48:09.339Z,24.60
2023-02-14T00:49:09.208Z,25.90
2023-02-14T00:50:09.116Z,24.90
2023-02-14T00:51:09.029Z,26.40
2023-02-14T00:52:08.947Z,27.90
2023-02-14T00:53:08.848Z,26.70
2023-02-14T00:54:08.754Z,28.20
2023-02-14T00:55:08.677Z,26.10
2023-02-14T00:56:08.577Z,25.10
2023-02-14T00:57:08.501Z,26.00
2023-02-14T00:58:08.397Z,24.40
2023-02-14T00:59:08.318Z,23.20
2023-02-14T01:00:08.216Z,25.60
2023-02-14T01:01:08.157Z,23.50
2023-02-14T01:02:08.082Z,23.40
2023-02-14T01:03:07.950Z,23.90
2023-02-14T01:04:07.851Z,23.90
2023-02-14T01:05:07.774Z,24.10
2023-02-14T01:06:07.662Z,24.40
2023-02-14T01:07:07.578Z,23.40
2023-02-14T01:08:07.489Z,24.10
2023-02-14T01:09:07.413Z,22.80
2023-02-14T01:10:07.314Z,23.00
2023-02-14T01:11:07.208Z,23.80
2023-02-14T01:12:07.122Z,24.60
2023-02-14T01:13:07.050Z,24.40
2023-02-14T01:14:06.968Z,22.20
2023-02-14T01:15:06.859Z,22.10
2023-02-14T01:16:06.765Z,21.40
2023-02-14T01:17:06.672Z,23.10
2023-02-14T01:18:06.569Z,21.50
2023-02-14T01:19:06.490Z,20.80
2023-02-14T01:20:06.392Z,20.60
2023-02-14T01:21:06.304Z,21.30
2023-02-14T01:22:06.209Z,20.60
2023-02-14T01:23:06.115Z,21.60
2023-02-14T01:24:06.019Z,22.10
2023-02-14T01:25:05.946Z,20.90
2023-02-14T01:26:05.837Z,22.70
2023-02-14T01:27:05.736Z,21.50
2023-02-14T01:28:05.647Z,22.80
2023-02-14T01:29:05.539Z,25.70
2023-02-14T01:30:05.518Z,25.80
2023-02-14T01:31:05.422Z,26.20
2023-02-14T01:32:05.281Z,25.40
2023-02-14T01:33:05.168Z,27.60
2023-02-14T01:34:05.077Z,27.10
2023-02-14T01:35:04.968Z,28.70
2023-02-14T01:36:04.862Z,25.40
2023-02-14T01:37:04.769Z,26.80
2023-02-14T01:38:04.682Z,26.90
2023-02-14T01:39:04.601Z,30.50
2023-02-14T01:40:04.509Z,30.60
2023-02-14T01:41:04.413Z,29.90
2023-02-14T01:42:04.314Z,25.50
2023-02-14T01:43:04.225Z,24.90
2023-02-14T01:44:04.117Z,25.60
2023-02-14T01:45:04.066Z,26.00
2023-02-14T01:46:04.021Z,26.30
2023-02-14T01:47:03.873Z,26.20
2023-02-14T01:48:03.777Z,26.70
2023-02-14T01:49:03.706Z,24.70
2023-02-14T01:50:03.609Z,23.90
2023-02-14T01:51:03.512Z,24.10
2023-02-14T01:52:04.361Z,24.00
2023-02-14T01:53:03.321Z,22.10
2023-02-14T01:54:03.228Z,23.30
2023-02-14T01:55:03.152Z,22.40
2023-02-14T01:56:03.042Z,23.40
2023-02-14T01:57:02.961Z,23.90
2023-02-14T01:58:02.849Z,23.70
2023-02-14T01:59:02.773Z,23.60
2023-02-14T02:00:02.681Z,21.70
2023-02-14T02:01:02.933Z,21.90
2023-02-14T02:02:02.516Z,21.60
2023-02-14T02:03:02.392Z,21.30
2023-02-14T02:04:02.291Z,21.80
2023-02-14T02:05:02.197Z,20.50
2023-02-14T02:06:02.092Z,19.20
2023-02-14T02:07:02.009Z,19.40
2023-02-14T02:08:01.898Z,21.20
2023-02-14T02:09:01.815Z,22.00
2023-02-14T02:10:01.737Z,22.00
2023-02-14T02:11:01.890Z,22.10
2023-02-14T02:12:01.513Z,21.90
2023-02-14T02:13:01.421Z,21.90
2023-02-14T02:14:01.332Z,23.70
2023-02-14T02:15:01.242Z,21.70
2023-02-14T02:16:01.126Z,20.60
2023-02-14T02:17:01.079Z,20.00
2023-02-14T02:18:00.925Z,20.30
2023-02-14T02:19:00.841Z,19.70
2023-02-14T02:20:00.751Z,19.80
2023-02-14T02:21:00.880Z,20.30
2023-02-14T02:22:00.540Z,20.20
2023-02-14T02:23:00.470Z,20.70
2023-02-14T02:24:00.334Z,18.20
2023-02-14T02:25:00.253Z,17.50
2023-02-14T02:26:00.125Z,17.70
2023-02-14T02:27:00.032Z,16.40
2023-02-14T02:27:59.929Z,18.30
2023-02-14T02:28:59.828Z,16.80
2023-02-14T02:29:59.765Z,16.70
2023-02-14T02:31:00.098Z,18.30
2023-02-14T02:31:59.615Z,18.10
2023-02-14T02:32:59.426Z,18.90
2023-02-14T02:33:59.317Z,18.80
2023-02-14T02:34:59.236Z,17.10
2023-02-14T02:35:59.116Z,16.20
2023-02-14T02:36:59.017Z,18.40
2023-02-14T02:37:58.921Z,18.30
2023-02-14T02:38:58.806Z,17.90
2023-02-14T02:39:58.716Z,18.40
2023-02-14T02:40:58.968Z,18.20
2023-02-14T02:41:58.486Z,18.00
2023-02-14T02:42:58.385Z,17.10
2023-02-14T02:43:58.277Z,17.50
2023-02-14T02:44:58.186Z,17.30
2023-02-14T02:45:58.090Z,18.90
2023-02-14T02:46:57.984Z,17.50
2023-02-14T02:47:57.875Z,17.90
2023-02-14T02:48:57.775Z,18.40
2023-02-14T02:49:57.687Z,18.30
2023-02-14T02:50:57.793Z,18.60
2023-02-14T02:51:57.479Z,18.40
2023-02-14T02:52:57.371Z,18.20
2023-02-14T02:53:57.267Z,18.30
2023-02-14T02:54:57.186Z,17.30
2023-02-14T02:55:57.072Z,18.00
2023-02-14T02:56:56.985Z,18.40
2023-02-14T02:57:56.860Z,17.40
2023-02-14T02:58:56.766Z,17.00
2023-02-14T02:59:56.669Z,17.30
2023-02-14T03:00:56.702Z,16.70
2023-02-14T03:01:56.448Z,18.30
2023-02-14T03:02:56.367Z,18.80
2023-02-14T03:03:56.252Z,18.20
2023-02-14T03:04:56.354Z,18.20
2023-02-14T03:05:56.049Z,17.90
2023-02-14T03:06:55.958Z,19.00
2023-02-14T03:07:55.857Z,17.80
2023-02-14T03:08:55.777Z,18.40
2023-02-14T03:09:55.659Z,19.60
2023-02-14T03:10:55.550Z,18.60
2023-02-14T03:11:55.448Z,19.00
2023-02-14T03:12:55.348Z,19.30
2023-02-14T03:13:55.237Z,19.30
2023-02-14T03:14:55.152Z,19.10
2023-02-14T03:15:55.100Z,19.30
2023-02-14T03:16:54.934Z,19.50
2023-02-14T03:17:54.815Z,18.70
2023-02-14T03:18:54.724Z,21.10
2023-02-14T03:19:54.611Z,19.00
2023-02-14T03:20:54.491Z,18.90
2023-02-14T03:21:54.394Z,19.00
2023-02-14T03:22:54.291Z,18.80
2023-02-14T03:23:54.190Z,17.70
2023-02-14T03:24:54.111Z,19.80
2023-02-14T03:25:53.993Z,18.70
2023-02-14T03:26:53.910Z,19.20
2023-02-14T03:27:53.808Z,19.60
2023-02-14T03:28:53.703Z,19.20
2023-02-14T03:29:53.631Z,18.90
2023-02-14T03:30:53.656Z,19.30
2023-02-14T03:31:53.503Z,18.50
2023-02-14T03:32:53.283Z,19.90
2023-02-14T03:33:53.182Z,20.30
2023-02-14T03:34:53.082Z,20.60
2023-02-14T03:35:52.994Z,21.60
2023-02-14T03:36:52.855Z,19.20
2023-02-14T03:37:52.763Z,20.30
2023-02-14T03:38:52.644Z,20.10
2023-02-14T03:39:52.543Z,20.20
2023-02-14T03:40:52.443Z,20.90
2023-02-14T03:41:52.338Z,19.20
2023-02-14T03:42:52.223Z,21.10
2023-02-14T03:43:52.135Z,22.20
2023-02-14T03:44:52.070Z,20.00
2023-02-14T03:45:51.929Z,21.20
2023-02-14T03:46:51.815Z,21.00
2023-02-14T03:47:51.715Z,21.90
2023-02-14T03:48:51.634Z,22.10
2023-02-14T03:49:51.516Z,21.00
2023-02-14T03:50:51.414Z,23.40
2023-02-14T03:51:51.306Z,23.10
2023-02-14T03:52:51.206Z,22.80
2023-02-14T03:53:51.096Z,24.60
2023-02-14T03:54:50.996Z,24.20
2023-02-14T03:55:50.900Z,23.70
2023-02-14T03:56:50.785Z,25.90
2023-02-14T03:57:50.694Z,26.00
2023-02-14T03:58:50.576Z,24.40
2023-02-14T03:59:50.476Z,24.30
2023-02-14T04:00:50.393Z,24.80
2023-02-14T04:01:50.295Z,23.70
2023-02-14T04:02:50.158Z,23.80
2023-02-14T04:03:50.101Z,24.00
2023-02-14T04:04:49.950Z,24.40
2023-02-14T04:05:49.855Z,23.60
2023-02-14T04:06:49.729Z,25.60
2023-02-14T04:07:49.636Z,25.70
2023-02-14T04:08:49.527Z,26.00
2023-02-14T04:09:49.439Z,26.70
2023-02-14T04:10:49.357Z,25.20
2023-02-14T04:11:49.226Z,24.90
2023-02-14T04:12:49.125Z,24.50
2023-02-14T04:13:49.028Z,24.60
2023-02-14T04:14:48.922Z,23.40
2023-02-14T04:15:48.898Z,21.90
2023-02-14T04:16:48.696Z,20.40
2023-02-14T04:17:48.589Z,18.50
2023-02-14T04:18:48.481Z,19.60
2023-02-14T04:19:48.379Z,22.10
2023-02-14T04:20:48.269Z,22.60
2023-02-14T04:21:48.150Z,16.70
2023-02-14T04:22:48.039Z,14.20
2023-02-14T04:23:47.941Z,14.10
2023-02-14T04:24:47.830Z,14.00
2023-02-14T04:25:47.741Z,13.80
2023-02-14T04:26:47.611Z,13.90
2023-02-14T04:27:47.521Z,12.50
2023-02-14T04:28:47.399Z,14.10
2023-02-14T04:29:47.388Z,14.80
2023-02-14T04:30:47.208Z,14.40
2023-02-14T04:31:47.222Z,14.80
2023-02-14T04:32:46.980Z,15.00
2023-02-14T04:33:46.880Z,15.70
2023-02-14T04:34:46.786Z,15.40
2023-02-14T04:35:46.688Z,14.20
2023-02-14T04:36:46.569Z,15.00
2023-02-14T04:37:46.463Z,13.80
2023-02-14T04:38:46.364Z,15.20
2023-02-14T04:39:46.261Z,13.80
2023-02-14T04:40:46.160Z,14.00
2023-02-14T04:41:46.066Z,13.80
2023-02-14T04:42:45.939Z,14.80
2023-02-14T04:43:45.833Z,13.70
2023-02-14T04:44:45.732Z,14.10
2023-02-14T04:45:45.646Z,15.40
2023-02-14T04:46:45.604Z,14.70
2023-02-14T04:47:45.437Z,15.30
2023-02-14T04:48:45.339Z,15.70
2023-02-14T04:49:45.241Z,15.30
2023-02-14T04:50:45.132Z,15.00
2023-02-14T04:51:45.012Z,15.10
2023-02-14T04:52:44.905Z,15.70
2023-02-14T04:53:44.801Z,15.00
2023-02-14T04:54:44.683Z,14.70
2023-02-14T04:55:44.593Z,15.90
2023-02-14T04:56:44.473Z,16.80
2023-02-14T04:57:44.370Z,14.90
2023-02-14T04:58:44.265Z,15.30
2023-02-14T04:59:44.170Z,14.90
2023-02-14T05:00:44.103Z,14.30
2023-02-14T05:01:43.976Z,13.50
2023-02-14T05:02:43.851Z,14.00
2023-02-14T05:03:43.743Z,15.30
2023-02-14T05:04:43.631Z,14.60
2023-02-14T05:05:43.544Z,14.50
2023-02-14T05:06:43.425Z,14.00
2023-02-14T05:07:43.318Z,13.70
2023-02-14T05:08:43.204Z,14.70
2023-02-14T05:09:43.103Z,14.20
2023-02-14T05:10:42.992Z,13.90
2023-02-14T05:11:42.888Z,14.00
2023-02-14T05:12:42.765Z,13.90
2023-02-14T05:13:42.664Z,14.30
2023-02-14T05:14:42.552Z,15.40
2023-02-14T05:15:42.460Z,14.00
2023-02-14T05:16:42.396Z,15.20
2023-02-14T05:17:42.223Z,14.40
2023-02-14T05:18:42.114Z,14.70
2023-02-14T05:19:42.003Z,14.30
2023-02-14T05:20:41.902Z,14.40
2023-02-14T05:21:41.804Z,14.80
2023-02-14T05:22:41.671Z,15.20
2023-02-14T05:23:41.560Z,15.20
2023-02-14T05:24:41.451Z,16.10
2023-02-14T05:25:41.409Z,15.10
2023-02-14T05:26:41.232Z,13.70
2023-02-14T05:27:41.128Z,13.70
2023-02-14T05:28:41.167Z,13.90
2023-02-14T05:29:40.912Z,14.20
2023-02-14T05:30:40.894Z,14.60
2023-02-14T05:31:40.793Z,14.00
2023-02-14T05:32:40.581Z,14.20
2023-02-14T05:33:40.473Z,16.40
2023-02-14T05:34:40.374Z,14.10
2023-02-14T05:35:40.267Z,13.60
2023-02-14T05:36:40.145Z,13.60
2023-02-14T05:37:40.035Z,14.20
2023-02-14T05:38:39.933Z,13.70
2023-02-14T05:39:39.827Z,12.70
2023-02-14T05:40:39.722Z,15.50
2023-02-14T05:41:44.778Z,14.40
2023-02-14T05:42:39.516Z,13.30
2023-02-14T05:43:39.409Z,13.60
2023-02-14T05:44:39.320Z,14.50
2023-02-14T05:45:39.334Z,12.50
2023-02-14T05:46:39.089Z,12.90
2023-02-14T05:47:38.968Z,11.40
2023-02-14T05:48:38.868Z,12.20
2023-02-14T05:49:38.758Z,13.20
2023-02-14T05:50:38.668Z,12.10
2023-02-14T05:51:38.555Z,12.40
2023-02-14T05:52:38.450Z,13.20
2023-02-14T05:53:38.349Z,11.80
2023-02-14T05:54:38.242Z,12.60
2023-02-14T05:55:38.151Z,13.10
2023-02-14T05:56:38.030Z,12.80
2023-02-14T05:57:37.940Z,12.50
2023-02-14T05:58:37.843Z,13.20
2023-02-14T05:59:37.731Z,12.10
2023-02-14T06:00:39.358Z,11.00
2023-02-14T06:01:37.512Z,12.10
2023-02-14T06:02:37.413Z,12.60
2023-02-14T06:03:37.306Z,11.40
2023-02-14T06:04:37.242Z,11.50
2023-02-14T06:05:37.102Z,11.80
2023-02-14T06:06:37.003Z,10.60
2023-02-14T06:07:36.886Z,10.80
2023-02-14T06:08:36.791Z,10.80
2023-02-14T06:09:36.673Z,11.30
2023-02-14T06:10:36.592Z,11.40
2023-02-14T06:11:36.465Z,11.20
2023-02-14T06:12:36.369Z,11.20
2023-02-14T06:13:36.264Z,10.10
2023-02-14T06:14:36.177Z,10.50
2023-02-14T06:15:36.078Z,10.40
2023-02-14T06:16:35.990Z,10.20
2023-02-14T06:17:35.867Z,10.40
2023-02-14T06:18:35.769Z,10.50
2023-02-14T06:19:35.672Z,10.20
2023-02-14T06:20:35.580Z,11.00
2023-02-14T06:21:35.470Z,11.00
2023-02-14T06:22:35.372Z,11.00
2023-02-14T06:23:35.261Z,11.50
2023-02-14T06:24:35.169Z,11.60
2023-02-14T06:25:35.073Z,15.90
2023-02-14T06:26:34.977Z,20.30
2023-02-14T06:27:34.871Z,20.10
2023-02-14T06:28:34.769Z,18.60
2023-02-14T06:29:34.668Z,17.50
2023-02-14T06:30:34.731Z,18.90
2023-02-14T06:31:34.635Z,16.70
2023-02-14T06:32:34.390Z,14.30
2023-02-14T06:33:34.291Z,13.70
2023-02-14T06:34:34.181Z,12.40
2023-02-14T06:35:34.088Z,13.70
2023-02-14T06:36:33.985Z,14.50
2023-02-14T06:37:33.870Z,10.70
2023-02-14T06:38:33.778Z,11.60
2023-02-14T06:39:33.676Z,12.20
2023-02-14T06:40:33.583Z,12.80
2023-02-14T06:41:33.469Z,13.80
2023-02-14T06:42:33.373Z,22.20
2023-02-14T06:43:33.271Z,15.30
2023-02-14T06:44:33.175Z,12.90
2023-02-14T06:45:33.080Z,12.90
2023-02-14T06:46:33.044Z,12.70
2023-02-14T06:47:34.977Z,13.20
2023-02-14T06:48:32.761Z,14.80
2023-02-14T06:49:32.652Z,13.00
2023-02-14T06:50:32.564Z,13.50
2023-02-14T06:51:32.461Z,14.00
2023-02-14T06:52:32.358Z,15.70
2023-02-14T06:53:32.252Z,15.60
2023-02-14T06:54:32.162Z,15.60
2023-02-14T06:55:32.075Z,14.80
2023-02-14T06:56:31.967Z,15.50
2023-02-14T06:57:31.870Z,14.80
2023-02-14T06:58:31.773Z,14.80
2023-02-14T06:59:31.679Z,17.80
2023-02-14T07:00:31.598Z,22.00
2023-02-14T07:01:31.501Z,17.30
2023-02-14T07:02:31.405Z,17.10
2023-02-14T07:03:31.317Z,14.90
2023-02-14T07:04:31.204Z,16.60
2023-02-14T07:05:31.105Z,13.80
2023-02-14T07:06:31.004Z,14.10
2023-02-14T07:07:30.913Z,17.70
2023-02-14T07:08:30.814Z,13.30
2023-02-14T07:09:30.718Z,12.10
2023-02-14T07:10:30.657Z,12.80
2023-02-14T07:11:30.523Z,12.60
2023-02-14T07:12:30.423Z,12.30
2023-02-14T07:13:30.315Z,11.20
2023-02-14T07:14:30.228Z,12.00
2023-02-14T07:15:30.174Z,13.30
2023-02-14T07:16:30.035Z,14.40
2023-02-14T07:17:29.935Z,13.40
2023-02-14T07:18:29.836Z,12.90
2023-02-14T07:19:29.738Z,13.30
2023-02-14T07:20:29.752Z,12.80
2023-02-14T07:21:29.537Z,12.20
2023-02-14T07:22:30.416Z,11.80
2023-02-14T07:23:29.342Z,11.70
2023-02-14T07:24:29.247Z,10.70
2023-02-14T07:25:29.154Z,11.20
2023-02-14T07:26:29.055Z,10.80
2023-02-14T07:27:28.947Z,11.90
2023-02-14T07:28:28.858Z,12.00
2023-02-14T07:29:28.754Z,10.70
2023-02-14T07:30:28.837Z,10.20
2023-02-14T07:31:28.619Z,11.30
2023-02-14T07:32:28.513Z,10.80
2023-02-14T07:33:28.340Z,10.80
2023-02-14T07:34:28.228Z,11.10
2023-02-14T07:35:28.147Z,10.70
2023-02-14T07:36:28.030Z,11.50
2023-02-14T07:37:27.927Z,11.60
2023-02-14T07:38:27.830Z,12.00
2023-02-14T07:39:27.731Z,11.10
2023-02-14T07:40:27.645Z,11.40
2023-02-14T07:41:27.518Z,11.40
2023-02-14T07:42:27.418Z,12.60
2023-02-14T07:43:27.326Z,13.30
2023-02-14T07:44:27.208Z,13.00
2023-02-14T07:45:27.138Z,13.20
2023-02-14T07:46:27.093Z,12.60
2023-02-14T07:47:26.899Z,12.90
2023-02-14T07:48:28.861Z,12.90
2023-02-14T07:49:26.682Z,13.60
2023-02-14T07:50:26.578Z,13.80
2023-02-14T07:51:26.462Z,13.70
2023-02-14T07:52:26.349Z,12.10
2023-02-14T07:53:26.248Z,12.70
2023-02-14T07:54:26.152Z,12.50
2023-02-14T07:55:26.060Z,12.40
2023-02-14T07:56:25.938Z,11.50
2023-02-14T07:57:25.839Z,11.40
2023-02-14T07:58:25.731Z,11.30
2023-02-14T07:59:26.199Z,11.60
2023-02-14T08:00:25.530Z,10.90
2023-02-14T08:01:25.475Z,10.10
2023-02-14T08:02:25.309Z,10.20
2023-02-14T08:03:25.228Z,10.20
2023-02-14T08:04:25.090Z,10.80
2023-02-14T08:05:25.056Z,9.60
2023-02-14T08:06:24.880Z,9.30
2023-02-14T08:07:24.781Z,9.90
2023-02-14T08:08:24.671Z,8.90
2023-02-14T08:09:24.643Z,9.30
2023-02-14T08:10:24.475Z,8.70
2023-02-14T08:11:24.366Z,8.90
2023-02-14T08:12:24.255Z,9.10
2023-02-14T08:13:24.167Z,8.40
2023-02-14T08:14:24.042Z,8.70
2023-02-14T08:15:23.962Z,9.10
2023-02-14T08:16:23.934Z,8.80
2023-02-14T08:17:23.736Z,8.50
2023-02-14T08:18:23.629Z,9.40
2023-02-14T08:19:23.519Z,9.10
2023-02-14T08:20:23.409Z,8.30
2023-02-14T08:21:23.304Z,8.20
2023-02-14T08:22:23.179Z,8.70
2023-02-14T08:23:23.077Z,7.80
2023-02-14T08:24:22.967Z,8.20
2023-02-14T08:25:22.869Z,7.50
2023-02-14T08:26:22.746Z,7.20
2023-02-14T08:27:22.628Z,6.70
2023-02-14T08:28:22.537Z,7.40
2023-02-14T08:29:22.421Z,8.20
2023-02-14T08:30:22.333Z,7.40
2023-02-14T08:31:34.496Z,7.50
2023-02-14T08:32:23.232Z,7.60
2023-02-14T08:33:21.950Z,7.30
2023-02-14T08:34:21.819Z,7.40
2023-02-14T08:35:21.718Z,8.30
2023-02-14T08:36:21.593Z,7.30
2023-02-14T08:37:21.480Z,7.00
2023-02-14T08:38:21.356Z,7.30
2023-02-14T08:39:21.236Z,7.40
2023-02-14T08:40:21.119Z,7.40
2023-02-14T08:41:21.006Z,7.10
2023-02-14T08:42:20.881Z,8.00
2023-02-14T08:43:20.772Z,7.30
2023-02-14T08:44:20.631Z,6.80
2023-02-14T08:45:20.541Z,6.90
2023-02-14T08:46:20.468Z,7.10
2023-02-14T08:47:20.291Z,7.30
2023-02-14T08:48:20.163Z,7.50
2023-02-14T08:49:20.051Z,8.70
2023-02-14T08:50:19.965Z,7.80
2023-02-14T08:51:19.812Z,8.80
2023-02-14T08:52:19.688Z,8.90
2023-02-14T08:53:19.572Z,8.70
2023-02-14T08:54:19.457Z,8.80
2023-02-14T08:55:19.344Z,9.70
2023-02-14T08:56:19.212Z,8.30
2023-02-14T08:57:19.094Z,8.40
2023-02-14T08:58:18.973Z,8.50
2023-02-14T08:59:18.854Z,8.70
2023-02-14T09:00:18.740Z,8.00
2023-02-14T09:01:18.757Z,8.70
2023-02-14T09:02:18.496Z,8.30
2023-02-14T09:03:18.401Z,9.60
2023-02-14T09:04:18.271Z,8.10
2023-02-14T09:05:18.156Z,9.10
2023-02-14T09:06:18.059Z,8.80
2023-02-14T09:07:17.875Z,9.50
2023-02-14T09:08:17.762Z,8.90
2023-02-14T09:09:17.632Z,10.20
2023-02-14T09:10:17.526Z,10.30
2023-02-14T09:11:17.384Z,10.40
2023-02-14T09:12:17.278Z,10.30
2023-02-14T09:13:17.132Z,10.40
2023-02-14T09:14:17.023Z,10.00
2023-02-14T09:15:16.898Z,9.50
2023-02-14T09:16:16.799Z,9.50
2023-02-14T09:17:16.757Z,10.00
2023-02-14T09:18:16.540Z,10.20
2023-02-14T09:19:16.397Z,9.70
2023-02-14T09:20:16.276Z,10.20
2023-02-14T09:21:16.159Z,10.30
2023-02-14T09:22:16.017Z,9.40
2023-02-14T09:23:15.890Z,10.20
2023-02-14T09:24:15.757Z,9.50
2023-02-14T09:25:15.656Z,9.50
2023-02-14T09:26:15.508Z,9.60
2023-02-14T09:27:15.369Z,8.70
2023-02-14T09:28:15.238Z,9.90
2023-02-14T09:29:15.112Z,8.80
2023-02-14T09:30:15.038Z,9.30
2023-02-14T09:31:14.894Z,9.10
2023-02-14T09:32:14.956Z,9.00
2023-02-14T09:33:14.604Z,8.20
2023-02-14T09:34:14.464Z,8.70
2023-02-14T09:35:14.360Z,8.80
2023-02-14T09:36:14.214Z,8.40
2023-02-14T09:37:14.086Z,8.50
2023-02-14T09:38:13.954Z,8.60
2023-02-14T09:39:13.830Z,8.60
2023-02-14T09:40:13.709Z,8.60
2023-02-14T09:41:13.574Z,9.50
2023-02-14T09:42:13.443Z,8.90
2023-02-14T09:43:13.311Z,8.90
2023-02-14T09:44:13.188Z,9.20
2023-02-14T09:45:13.060Z,9.30
2023-02-14T09:46:12.969Z,9.00
2023-02-14T09:47:12.794Z,8.80
2023-02-14T09:48:12.654Z,8.60
2023-02-14T09:49:12.635Z,8.50
2023-02-14T09:50:12.421Z,9.30
2023-02-14T09:51:12.269Z,8.90
2023-02-14T09:52:12.140Z,8.10
2023-02-14T09:53:12.014Z,8.00
2023-02-14T09:54:11.874Z,7.80
2023-02-14T09:55:11.754Z,7.90
2023-02-14T09:56:11.614Z,7.80
2023-02-14T09:57:11.528Z,7.80
2023-02-14T09:58:11.357Z,7.80
2023-02-14T09:59:11.224Z,7.80
2023-02-14T10:00:11.115Z,7.80
2023-02-14T10:01:11.035Z,7.50
2023-02-14T10:02:10.970Z,7.40
2023-02-14T10:03:10.699Z,8.00
2023-02-14T10:04:10.556Z,7.80
2023-02-14T10:05:10.453Z,7.60
2023-02-14T10:06:10.315Z,7.90
2023-02-14T10:07:10.146Z,7.80
2023-02-14T10:08:10.006Z,8.40
2023-02-14T10:09:09.866Z,8.70
2023-02-14T10:10:09.736Z,7.90
2023-02-14T10:11:09.590Z,8.50
2023-02-14T10:12:09.447Z,8.20
2023-02-14T10:13:09.308Z,8.10
2023-02-14T10:14:09.173Z,8.80
2023-02-14T10:15:09.049Z,8.70
2023-02-14T10:16:08.949Z,8.60
2023-02-14T10:17:08.751Z,9.00
2023-02-14T10:18:08.600Z,8.60
2023-02-14T10:19:08.458Z,9.10
2023-02-14T10:20:08.329Z,8.90
2023-02-14T10:21:08.187Z,8.70
2023-02-14T10:22:08.049Z,9.60
2023-02-14T10:23:07.909Z,8.60
2023-02-14T10:24:07.769Z,8.90
2023-02-14T10:25:07.642Z,9.10
2023-02-14T10:26:07.481Z,9.10
2023-02-14T10:27:28.378Z,10.00
2023-02-14T10:28:07.220Z,9.90
2023-02-14T10:29:07.065Z,9.10
2023-02-14T10:30:07.020Z,9.80
2023-02-14T10:31:06.807Z,8.70
2023-02-14T10:32:06.671Z,9.40
2023-02-14T10:33:06.505Z,9.60
2023-02-14T10:34:06.362Z,9.70
2023-02-14T10:35:06.222Z,8.60
2023-02-14T10:36:06.072Z,8.80
2023-02-14T10:37:05.930Z,8.00
2023-02-14T10:38:05.783Z,8.10
2023-02-14T10:39:05.632Z,7.00
2023-02-14T10:40:05.502Z,8.80
2023-02-14T10:41:05.357Z,7.80
2023-02-14T10:42:05.208Z,7.40
2023-02-14T10:43:05.071Z,8.00
2023-02-14T10:44:04.929Z,8.70
2023-02-14T10:45:04.782Z,7.40
2023-02-14T10:46:04.659Z,7.90
2023-02-14T10:47:04.494Z,8.00
2023-02-14T10:48:04.346Z,7.50
2023-02-14T10:49:04.197Z,8.00
2023-02-14T10:50:04.067Z,7.80
2023-02-14T10:51:03.906Z,8.00
2023-02-14T10:52:03.776Z,7.60
2023-02-14T10:53:03.626Z,7.80
2023-02-14T10:54:03.491Z,7.30
2023-02-14T10:55:03.348Z,7.20
2023-02-14T10:56:03.199Z,7.50
2023-02-14T10:57:03.045Z,7.80
2023-02-14T10:58:02.908Z,7.30
2023-02-14T10:59:02.763Z,7.50
2023-02-14T11:00:02.632Z,7.60
2023-02-14T11:01:02.835Z,7.50
2023-02-14T11:02:02.340Z,7.20
2023-02-14T11:03:02.179Z,7.60
2023-02-14T11:04:02.125Z,7.30
2023-02-14T11:05:01.918Z,7.40
2023-02-14T11:06:01.771Z,7.30
2023-02-14T11:07:01.592Z,7.30
2023-02-14T11:08:01.444Z,7.50
2023-02-14T11:09:01.296Z,7.70
2023-02-14T11:10:01.153Z,8.30
2023-02-14T11:11:01.346Z,8.00
2023-02-14T11:12:00.851Z,8.50
2023-02-14T11:13:00.698Z,7.40
2023-02-14T11:14:00.534Z,7.10
2023-02-14T11:15:00.416Z,7.30
2023-02-14T11:16:00.572Z,7.50
2023-02-14T11:17:00.114Z,6.90
2023-02-14T11:17:59.915Z,6.40
2023-02-14T11:18:59.765Z,6.60
2023-02-14T11:19:59.630Z,7.20
2023-02-14T11:20:59.471Z,6.50
2023-02-14T11:21:59.313Z,6.80
2023-02-14T11:22:59.146Z,7.30
2023-02-14T11:23:59.007Z,6.70
2023-02-14T11:24:58.865Z,6.60
2023-02-14T11:25:58.966Z,6.90
2023-02-14T11:26:58.547Z,7.00
2023-02-14T11:27:58.405Z,6.80
2023-02-14T11:28:58.242Z,7.10
2023-02-14T11:29:58.122Z,7.00
2023-02-14T11:30:58.093Z,7.00
2023-02-14T11:31:57.833Z,6.90
2023-02-14T11:32:57.626Z,6.90
2023-02-14T11:33:57.476Z,6.70
2023-02-14T11:34:57.348Z,6.80
2023-02-14T11:35:57.158Z,6.20
2023-02-14T11:36:56.996Z,6.70
2023-02-14T11:37:56.836Z,6.70
2023-02-14T11:38:56.677Z,6.70
2023-02-14T11:39:56.598Z,6.50
2023-02-14T11:40:56.370Z,6.50
2023-02-14T11:41:56.214Z,6.80
2023-02-14T11:43:12.829Z,6.50
2023-02-14T11:43:56.880Z,6.30
2023-02-14T11:44:55.719Z,6.40
2023-02-14T11:45:55.597Z,6.50
2023-02-14T11:46:55.399Z,6.20
2023-02-14T11:47:55.252Z,6.30
2023-02-14T11:48:55.081Z,6.60
2023-02-14T11:49:54.929Z,6.40
2023-02-14T11:50:54.770Z,6.00
2023-02-14T11:51:54.600Z,7.00
2023-02-14T11:52:54.432Z,6.10
2023-02-14T11:53:54.283Z,6.40
2023-02-14T11:54:54.122Z,6.00
2023-02-14T11:55:53.962Z,6.70
2023-02-14T11:56:53.811Z,6.50
2023-02-14T11:57:53.623Z,6.00
2023-02-14T11:58:53.485Z,6.10
2023-02-14T11:59:53.315Z,6.30
2023-02-14T12:00:53.165Z,6.10
2023-02-14T12:01:53.006Z,6.00
2023-02-14T12:02:52.860Z,5.90
2023-02-14T12:03:52.786Z,6.20
2023-02-14T12:04:52.534Z,6.30
2023-02-14T12:05:52.356Z,5.90
2023-02-14T12:06:52.216Z,6.30
2023-02-14T12:07:52.047Z,6.10
2023-02-14T12:08:51.892Z,5.90
2023-02-14T12:09:51.719Z,6.40
2023-02-14T12:10:51.573Z,6.20
2023-02-14T12:11:51.417Z,6.10
2023-02-14T12:12:51.267Z,6.10
2023-02-14T12:13:51.089Z,6.30
2023-02-14T12:14:50.939Z,7.00
2023-02-14T12:15:50.832Z,6.50
2023-02-14T12:16:50.635Z,6.30
2023-02-14T12:17:50.459Z,6.00
2023-02-14T12:18:50.312Z,6.20
2023-02-14T12:19:50.150Z,6.50
2023-02-14T12:20:50.000Z,6.30
2023-02-14T12:21:49.848Z,5.80
2023-02-14T12:22:49.690Z,5.70
2023-02-14T12:23:49.540Z,6.40
2023-02-14T12:24:49.379Z,5.40
2023-02-14T12:25:49.219Z,5.80
2023-02-14T12:26:49.075Z,6.00
2023-02-14T12:27:48.901Z,6.30
2023-02-14T12:28:48.730Z,5.70
2023-02-14T12:29:48.581Z,6.20
2023-02-14T12:30:48.474Z,5.80
2023-02-14T12:31:48.336Z,6.00
2023-02-14T12:32:48.089Z,6.00
2023-02-14T12:33:50.217Z,6.10
2023-02-14T12:34:47.748Z,6.30
2023-02-14T12:35:47.579Z,6.00
2023-02-14T12:36:47.451Z,6.10
2023-02-14T12:37:50.865Z,6.40
2023-02-14T12:38:48.091Z,6.40
2023-02-14T12:39:48.799Z,5.80
2023-02-14T12:40:46.772Z,6.50
2023-02-14T12:41:46.589Z,6.30
2023-02-14T12:42:46.439Z,6.60
2023-02-14T12:43:46.261Z,6.10
2023-02-14T12:44:46.099Z,6.20
2023-02-14T12:45:48.624Z,6.90
2023-02-14T12:46:45.759Z,6.60
2023-02-14T12:47:45.600Z,7.20
2023-02-14T12:48:45.430Z,6.60
2023-02-14T12:49:45.252Z,6.80
2023-02-14T12:50:45.104Z,6.50
2023-02-14T12:51:44.923Z,7.20
2023-02-14T12:52:44.749Z,6.80
2023-02-14T12:53:44.581Z,7.10
2023-02-14T12:54:44.404Z,7.00
2023-02-14T12:55:44.232Z,7.10
2023-02-14T12:56:44.066Z,7.00
2023-02-14T12:57:43.892Z,6.50
2023-02-14T12:58:43.757Z,6.30
2023-02-14T12:59:43.566Z,6.50